طريف, السعودية

04:16 AM AST on وèلهبر 22, 2014 (GMT +0300)
Turaif | Change Station
CLOSE
Current Station
Airport
Location: Turaif,
Elevation: 2795 ft
Nearby Weather Stations

Elev 2795 ft 31.69 °N, 38.73 °E | Updated 16 minutes ago

Clear
صافية
52 °F
Feels Like 52 °F
N
7
ريح متغير ريح from جنوب غربی

هذا اليوم
High -- | Low -- °F
--% Chance of Precip.
Yesterday
High -- | Low -- °F
Precip. -- في
6:59 AM 5:22 PM
الهلال الأخير, 0% visible
الضغط 29.95 في
وضوح الرؤية -9999.0 أميال
سحابات
نقطة الندى 50 °F
الرطوبة 94%
Rainfall 0.00 في
عمق الثلج Not available.
الأشعة فوق البنفسجية Not available.
Pollen Not available.
جودة الهواء Not available.
Flu Activity Not available.
METAR OETR 220100Z 23006KT CAVOK 11/10 Q1014 NOSIG

More Conditions Fewer Conditions

الضغط 29.95 في
وضوح الرؤية -9999.0 أميال
سحابات
نقطة الندى 50 °F
الرطوبة 94%
Rainfall 0.00 في
عمق الثلج Not available.
الأشعة فوق البنفسجية Not available.
Pollen Not available.
جودة الهواء Not available.
Flu Activity Not available.
METAR OETR 220100Z 23006KT CAVOK 11/10 Q1014 NOSIG

More Conditions Fewer Conditions

10-Day Weather Forecast

Almanac

علم الفلك

Nov. 22, 2014 Rise Set
Actual Time
Civil Twilight
Nautical Twilight
Astronomical Twilight
قمر
Length Of Visible Light
طول الیوم
Tomorrow will be .
, % of the Moon is Illuminated

Today's Extremes

Country Highs Country Lows

Community

WunderPhotos

Upload Photos

1,772,747 photos uploaded!

WunderBlogs® & News

Nearby

جودة الهواء

  جودة الهواء AQ Index Pollutant
Not available.

عمق الثلج

Station Depth Elevation

Earthquake Activity

City Distance Mag. Time & Date
Minimum magnitude displayed is 2.5.

Coastal Water Temperatures

مكان درجات الحرارة

Nearby Weather Stations